Koppie Airport

Jump to: basic info | weather | runways | comments

Related pages: nearby airports | nearby navaids | notams | map

Basic information (top)

Codes: 7IS5
Location: lon 42.121399, lat -88.378098, elev 890 ft / 271 m msl
Status: small_airport

Weather (top)

Current conditions for Dupage Airport 14nm (26km) SSE (rec'd 2014/07/25 14:52Z):

KDPA 251452Z 18010KT 10SM CLR 19/13 A3002 RMK AO2 RAE00 SLP163 P0000 60000 T01890133 58024

Airport forecast for Dupage Airport 14nm (26km) SSE (rec'd 2014/07/25 12:24Z):

TAF KDPA 251121Z 2512/2612 18006KT P6SM BKN120 
     FM251300 19009KT P6SM VCSH SCT080 BKN120 
      TEMPO 2513/2515 -RA 
     FM251700 20011G16KT P6SM SCT080 BKN120 
     FM260100 19010KT P6SM VCSH OVC080 
     FM260400 19010KT 6SM SHRA OVC060 PROB30 2604/2608 4SM TSRA OVC040CB 
     FM260800 22007KT 6SM BR BKN040

Runways (top)

N/S: 2,300 x 100 ft (701 x 30 m) — grass — not lighted

Latest comments (top)

No comments yet for Koppie Airport

More... (top)

See also NOTAMs and nearby airports and navaids, or visit the Koppie Airport page at the main OurAirports website..